Time;durP1;ratioP1;P1;durP2;ratioP2;P2;SDS_P1;SDS_P2;PMS_P1;PMS_P2;Temp;Humidity;BMP_temperature;BMP_pressure;BME280_temperature;BME280_humidity;BME280_pressure;Samples;Min_cycle;Max_cycle;Signal;HPM_P1;HPM_P2
2023/07/28 00:02:05;;;;;;;1.67;1.37;;;19.20;99.90;;;19.62;nan;99844.72;4999338;28;20630;-65
2023/07/28 00:04:35;;;;;;;2.47;1.57;;;19.20;99.90;;;19.65;nan;99847.00;5011650;28;22228;-66
2023/07/28 00:07:04;;;;;;;2.10;1.70;;;19.20;99.90;;;19.63;nan;99840.25;4996378;28;20669;-67
2023/07/28 00:09:31;;;;;;;1.37;1.37;;;19.20;99.90;;;19.61;nan;99836.97;5008512;28;21004;-65
2023/07/28 00:11:59;;;;;;;5.60;1.80;;;19.10;99.90;;;19.62;nan;99836.78;5000941;28;20642;-64
2023/07/28 00:14:28;;;;;;;1.50;1.40;;;19.10;99.90;;;19.61;nan;99835.16;5001642;28;20637;-64
2023/07/28 00:16:57;;;;;;;1.13;1.10;;;19.10;99.90;;;19.59;nan;99831.06;4992312;28;20679;-63
2023/07/28 00:19:24;;;;;;;1.33;1.33;;;19.10;99.90;;;19.60;nan;99841.44;4998709;28;21179;-63
2023/07/28 00:21:51;;;;;;;1.13;1.13;;;19.10;99.90;;;19.62;nan;99835.97;5011746;28;20621;-65
2023/07/28 00:24:18;;;;;;;1.40;1.30;;;19.20;99.90;;;19.61;nan;99834.34;5001098;28;21083;-64
2023/07/28 00:26:45;;;;;;;1.67;1.20;;;19.20;99.90;;;19.57;nan;99841.00;5008238;28;20669;-67
2023/07/28 00:29:12;;;;;;;1.30;1.13;;;19.20;99.90;;;19.58;nan;99835.53;5003921;28;20645;-68
2023/07/28 00:31:39;;;;;;;1.07;1.07;;;19.10;99.90;;;19.59;nan;99831.06;5012029;28;20637;-65
2023/07/28 00:34:06;;;;;;;0.93;0.93;;;19.10;99.90;;;19.57;nan;99833.88;4999671;28;21190;-64
2023/07/28 00:36:33;;;;;;;1.07;0.97;;;19.10;99.90;;;19.56;nan;99826.97;5007913;28;20669;-65
2023/07/28 00:39:01;;;;;;;1.40;1.30;;;19.10;99.90;;;19.50;nan;99817.13;5012728;28;20625;-64
2023/07/28 00:41:28;;;;;;;5.03;1.40;;;19.10;99.90;;;19.55;nan;99825.31;4999871;28;20644;-63
2023/07/28 00:43:55;;;;;;;0.90;0.90;;;19.10;99.90;;;19.55;nan;99820.00;5006481;28;20641;-63
2023/07/28 00:46:22;;;;;;;1.17;1.17;;;19.10;99.90;;;19.57;nan;99823.28;5011147;28;20661;-63
2023/07/28 00:48:49;;;;;;;1.17;1.00;;;19.10;99.90;;;19.54;nan;99813.09;5003073;28;20643;-66
2023/07/28 00:51:16;;;;;;;1.20;1.20;;;19.10;99.90;;;19.53;nan;99808.00;5001715;28;20642;-64
2023/07/28 00:53:43;;;;;;;1.37;1.20;;;19.10;99.90;;;19.51;nan;99816.09;5008572;28;20638;-64
2023/07/28 00:56:11;;;;;;;0.80;0.80;;;19.00;99.90;;;19.51;nan;99808.16;5007391;28;20661;-63
2023/07/28 00:58:38;;;;;;;1.63;1.53;;;19.10;99.90;;;19.50;nan;99798.59;5007245;28;20693;-63
2023/07/28 01:01:05;;;;;;;1.03;1.03;;;19.10;99.90;;;19.52;nan;99803.69;5010069;28;20637;-66
2023/07/28 01:03:32;;;;;;;0.80;0.80;;;19.10;99.90;;;19.49;nan;99815.47;5010403;28;20625;-63
2023/07/28 01:06:27;;;;;;;1.07;1.07;;;19.00;99.90;;;19.50;nan;99818.94;5003689;28;20668;-64
2023/07/28 01:09:03;;;;;;;0.80;0.80;;;19.00;99.90;;;19.51;nan;99824.03;5009631;28;20633;-65
2023/07/28 01:11:30;;;;;;;1.13;1.10;;;19.10;99.90;;;19.53;nan;99811.44;4998435;28;21194;-66
2023/07/28 01:13:58;;;;;;;0.90;0.90;;;19.10;99.90;;;19.54;nan;99812.28;4997103;28;20646;-63
2023/07/28 01:16:25;;;;;;;1.20;1.10;;;19.10;99.90;;;19.52;nan;99814.28;5002922;28;20674;-69
2023/07/28 01:18:52;;;;;;;0.90;0.90;;;19.10;99.90;;;19.49;nan;99809.34;5010963;28;20675;-63
2023/07/28 01:21:28;;;;;;;0.90;0.90;;;19.00;99.90;;;19.45;nan;99823.97;4992106;28;20645;-65
2023/07/28 01:24:02;;;;;;;1.10;0.80;;;19.00;99.90;;;19.46;nan;99821.16;4998133;28;20613;-65
2023/07/28 01:26:39;;;;;;;1.20;1.07;;;19.00;99.90;;;19.47;nan;99824.59;4993834;28;20658;-66
2023/07/28 01:29:07;;;;;;;0.93;0.90;;;19.00;99.90;;;19.48;nan;99820.97;5005910;28;20638;-64
2023/07/28 01:31:34;;;;;;;1.40;1.27;;;19.00;99.90;;;19.48;nan;99823.59;5001037;28;20711;-65
2023/07/28 01:34:01;;;;;;;1.10;1.10;;;19.00;99.90;;;19.47;nan;99827.25;5003092;28;20633;-64
2023/07/28 01:36:28;;;;;;;0.80;0.80;;;19.00;99.90;;;19.46;nan;99831.75;4990458;28;20662;-64
2023/07/28 01:38:55;;;;;;;0.70;0.70;;;19.00;99.90;;;19.46;nan;99820.31;4987603;28;21263;-66
2023/07/28 01:41:22;;;;;;;1.87;0.90;;;19.00;99.90;;;19.45;nan;99819.50;5005157;28;20638;-65
2023/07/28 01:43:49;;;;;;;0.90;0.90;;;19.00;99.90;;;19.43;nan;99821.50;5006769;28;20633;-65
2023/07/28 01:46:16;;;;;;;0.80;0.80;;;19.00;99.90;;;19.42;nan;99822.53;5008813;28;20658;-65
2023/07/28 01:48:43;;;;;;;0.77;0.77;;;19.00;99.90;;;19.44;nan;99831.09;5009705;28;20660;-65
2023/07/28 01:51:10;;;;;;;0.70;0.70;;;19.00;99.90;;;19.45;nan;99835.38;5004413;28;20649;-65
2023/07/28 01:53:37;;;;;;;1.17;1.13;;;19.00;99.90;;;19.43;nan;99832.09;5005148;28;21259;-67
2023/07/28 01:56:04;;;;;;;0.73;0.73;;;19.00;99.90;;;19.43;nan;99821.50;5003430;28;20671;-65
2023/07/28 01:58:31;;;;;;;0.70;0.70;;;19.00;99.90;;;19.39;nan;99824.72;5007494;28;21308;-68
2023/07/28 02:00:58;;;;;;;0.80;0.80;;;19.00;99.90;;;19.33;nan;99819.16;5010075;28;20637;-67
2023/07/28 02:03:25;;;;;;;0.80;0.80;;;18.90;99.90;;;19.31;nan;99815.03;4996064;28;20642;-68
2023/07/28 02:05:52;;;;;;;0.70;0.70;;;18.90;99.90;;;19.28;nan;99818.03;4950299;28;1120039;-65
2023/07/28 02:08:19;;;;;;;0.60;0.57;;;18.80;99.90;;;19.22;nan;99814.34;4998560;28;20637;-69
2023/07/28 02:10:46;;;;;;;1.43;0.83;;;18.80;99.90;;;19.21;nan;99802.09;4981923;28;20641;-63
2023/07/28 02:13:13;;;;;;;0.83;0.80;;;18.80;99.90;;;19.20;nan;99810.22;4986277;28;20642;-65
2023/07/28 02:15:40;;;;;;;1.00;0.80;;;18.80;99.90;;;19.18;nan;99806.94;4992483;28;22522;-65
2023/07/28 02:18:07;;;;;;;0.63;0.63;;;18.80;99.90;;;19.17;nan;99806.13;4994033;28;20684;-62
2023/07/28 02:20:35;;;;;;;0.83;0.83;;;18.70;99.90;;;19.16;nan;99806.31;5000229;28;20638;-65
2023/07/28 02:23:02;;;;;;;0.80;0.80;;;18.70;99.90;;;19.11;nan;99808.69;5004683;28;20695;-65
2023/07/28 02:25:29;;;;;;;0.70;0.70;;;18.70;99.90;;;19.11;nan;99819.25;5003987;28;20637;-68
2023/07/28 02:27:57;;;;;;;0.80;0.80;;;18.70;99.90;;;19.09;nan;99811.53;5006801;28;21202;-69
2023/07/28 02:30:24;;;;;;;0.70;0.70;;;18.70;99.90;;;19.12;nan;99802.41;4999214;28;20642;-68
2023/07/28 02:32:51;;;;;;;1.20;0.93;;;18.70;99.90;;;19.10;nan;99799.94;4993084;28;21098;-64
2023/07/28 02:35:18;;;;;;;3.03;1.07;;;18.70;99.90;;;19.10;nan;99799.94;4997515;28;20649;-65
2023/07/28 02:37:47;;;;;;;0.70;0.70;;;18.70;99.90;;;19.08;nan;99796.66;5009606;28;20670;-65
2023/07/28 02:40:14;;;;;;;0.90;0.90;;;18.70;99.90;;;19.09;nan;99794.81;4998676;28;20634;-65
2023/07/28 02:42:42;;;;;;;0.57;0.57;;;18.70;99.90;;;19.07;nan;99794.19;4997794;28;20639;-65
2023/07/28 02:45:09;;;;;;;0.80;0.77;;;18.70;99.90;;;19.06;nan;99797.84;4986267;28;21125;-65
2023/07/28 02:47:37;;;;;;;1.37;1.00;;;18.70;99.90;;;19.03;nan;99798.22;4977502;28;20675;-65
2023/07/28 02:50:04;;;;;;;0.73;0.70;;;18.60;99.90;;;18.99;nan;99802.22;4995360;28;20642;-66
2023/07/28 02:52:31;;;;;;;0.80;0.80;;;18.60;99.90;;;18.97;nan;99806.88;5006211;28;21245;-67
2023/07/28 02:54:58;;;;;;;0.70;0.67;;;18.60;99.90;;;18.98;nan;99803.22;5005443;28;20626;-65
2023/07/28 02:57:25;;;;;;;0.70;0.70;;;18.50;99.90;;;18.97;nan;99805.06;4996316;28;20678;-68
2023/07/28 02:59:53;;;;;;;0.80;0.80;;;18.50;99.90;;;19.00;nan;99812.63;5006313;28;21191;-63
2023/07/28 03:02:20;;;;;;;0.83;0.80;;;18.50;99.90;;;18.98;nan;99814.63;5002355;28;21010;-65
2023/07/28 03:04:47;;;;;;;1.10;1.10;;;18.60;99.90;;;19.01;nan;99816.09;5005591;28;21337;-64
2023/07/28 03:07:14;;;;;;;0.80;0.80;;;18.60;99.90;;;19.04;nan;99823.63;4979369;28;20674;-64
2023/07/28 03:09:41;;;;;;;0.80;0.80;;;18.60;99.90;;;19.03;nan;99822.00;5000350;28;20696;-65
2023/07/28 03:12:08;;;;;;;0.70;0.70;;;18.60;99.90;;;19.02;nan;99820.34;5006450;28;21245;-65
2023/07/28 03:14:35;;;;;;;0.83;0.83;;;18.60;99.90;;;19.03;nan;99824.66;5008206;28;20632;-69
2023/07/28 03:17:02;;;;;;;0.87;0.87;;;18.60;99.90;;;19.06;nan;99821.66;4989382;28;20713;-64
2023/07/28 03:19:29;;;;;;;1.13;1.13;;;18.60;99.90;;;19.08;nan;99825.72;5004777;28;21261;-64
2023/07/28 03:21:56;;;;;;;0.97;0.97;;;18.70;99.90;;;19.11;nan;99827.19;4998182;28;20652;-65
2023/07/28 03:24:24;;;;;;;0.87;0.87;;;18.70;99.90;;;19.15;nan;99812.59;4998854;28;20642;-66
2023/07/28 03:26:51;;;;;;;0.73;0.73;;;18.70;99.90;;;19.16;nan;99808.97;5003244;28;21249;-66
2023/07/28 03:29:18;;;;;;;0.83;0.83;;;18.70;99.90;;;19.19;nan;99811.22;5000092;28;20640;-65
2023/07/28 03:31:45;;;;;;;0.87;0.87;;;18.80;99.90;;;19.19;nan;99814.69;5009768;28;20638;-64
2023/07/28 03:34:12;;;;;;;1.00;1.00;;;18.80;99.90;;;19.20;nan;99815.50;5000523;28;20650;-64
2023/07/28 03:36:39;;;;;;;1.00;1.00;;;18.80;99.90;;;19.22;nan;99814.34;5000576;28;20698;-65
2023/07/28 03:39:06;;;;;;;1.30;1.20;;;18.80;99.90;;;19.25;nan;99818.44;5000532;28;21274;-64
2023/07/28 03:41:33;;;;;;;1.43;1.20;;;18.80;99.90;;;19.25;nan;99816.59;5001739;28;20652;-67
2023/07/28 03:44:00;;;;;;;0.93;0.77;;;18.80;99.90;;;19.25;nan;99815.78;5007251;28;20640;-64
2023/07/28 03:46:27;;;;;;;1.27;1.17;;;18.80;99.90;;;19.24;nan;99817.59;5001262;28;20661;-68
2023/07/28 03:48:57;;;;;;;1.17;0.97;;;18.80;99.90;;;19.23;nan;99815.13;4995768;28;20652;-64
2023/07/28 03:51:24;;;;;;;1.43;1.33;;;18.80;99.90;;;19.21;nan;99822.44;5005733;28;20648;-66
2023/07/28 03:53:51;;;;;;;0.90;0.90;;;18.80;99.90;;;19.21;nan;99827.72;4995684;28;20634;-65
2023/07/28 03:56:18;;;;;;;0.80;0.80;;;18.80;99.90;;;19.21;nan;99823.25;5005376;28;20672;-65
2023/07/28 03:58:45;;;;;;;1.10;1.00;;;18.80;99.90;;;19.22;nan;99824.09;5012229;28;20669;-65
2023/07/28 04:01:13;;;;;;;1.00;0.90;;;18.80;99.90;;;19.20;nan;99826.09;5008565;28;20644;-65
2023/07/28 04:03:40;;;;;;;1.20;1.10;;;18.80;99.90;;;19.21;nan;99831.19;5003405;28;20734;-65
2023/07/28 04:06:11;;;;;;;1.37;1.10;;;18.80;99.90;;;19.20;nan;99831.38;5000315;28;20684;-66
2023/07/28 04:08:39;;;;;;;1.40;1.30;;;18.80;99.90;;;19.21;nan;99820.59;5009480;28;20633;-65
2023/07/28 04:11:07;;;;;;;1.03;1.03;;;18.80;99.90;;;19.20;nan;99820.81;4991618;28;20645;-65
2023/07/28 04:13:34;;;;;;;4.03;1.00;;;18.80;99.90;;;19.20;nan;99818.16;4993963;28;20645;-65
2023/07/28 04:16:01;;;;;;;1.40;1.30;;;18.80;99.90;;;19.17;nan;99819.34;5007391;28;20669;-68
2023/07/28 04:18:28;;;;;;;1.10;1.10;;;18.70;99.90;;;19.17;nan;99818.53;5005932;28;20680;-65
2023/07/28 04:20:55;;;;;;;2.00;1.33;;;18.70;99.90;;;19.19;nan;99816.50;5003242;28;20637;-68
2023/07/28 04:23:22;;;;;;;1.20;1.10;;;18.80;99.90;;;19.21;nan;99825.06;5005741;28;20630;-67
2023/07/28 04:25:49;;;;;;;1.00;1.00;;;18.80;99.90;;;19.22;nan;99829.38;5004187;28;20664;-68
2023/07/28 04:28:16;;;;;;;0.90;0.90;;;18.80;99.90;;;19.22;nan;99832.84;5001489;28;20642;-65
2023/07/28 04:30:43;;;;;;;3.03;0.87;;;18.80;99.90;;;19.24;nan;99827.34;4997167;28;20646;-64
2023/07/28 04:33:10;;;;;;;0.97;0.97;;;18.80;99.90;;;19.21;nan;99839.13;4994712;28;20653;-65
2023/07/28 04:35:37;;;;;;;1.13;1.00;;;18.80;99.90;;;19.21;nan;99840.94;4999466;28;20638;-64
2023/07/28 04:38:04;;;;;;;0.80;0.80;;;18.80;99.90;;;19.21;nan;99841.75;5012336;28;21281;-66
2023/07/28 04:40:31;;;;;;;1.73;0.80;;;18.80;99.90;;;19.22;nan;99851.34;5004013;28;20630;-68
2023/07/28 04:42:58;;;;;;;1.30;1.20;;;18.80;99.90;;;19.24;nan;99852.00;4983476;28;20649;-70
2023/07/28 04:45:25;;;;;;;0.63;0.63;;;18.80;99.90;;;19.21;nan;99854.16;4994667;28;21015;-65
2023/07/28 04:47:52;;;;;;;0.70;0.70;;;18.80;99.90;;;19.19;nan;99851.72;5002091;28;20641;-67
2023/07/28 04:50:19;;;;;;;0.87;0.87;;;18.80;99.90;;;19.23;nan;99854.78;5010348;28;20633;-65
2023/07/28 04:52:46;;;;;;;1.13;1.10;;;18.80;99.90;;;19.22;nan;99856.66;5001593;28;20633;-65
2023/07/28 04:55:13;;;;;;;1.00;1.00;;;18.80;99.90;;;19.25;nan;99861.53;4997710;28;20637;-65
2023/07/28 04:57:40;;;;;;;1.10;1.00;;;18.80;99.90;;;19.29;nan;99864.66;5010771;28;20653;-65
2023/07/28 05:00:08;;;;;;;0.97;0.97;;;18.90;99.90;;;19.25;nan;99852.81;4998240;28;20658;-67
2023/07/28 05:02:37;;;;;;;0.60;0.60;;;18.80;99.90;;;19.28;nan;99865.66;4996256;28;20647;-65
2023/07/28 05:05:04;;;;;;;0.87;0.87;;;18.90;99.90;;;19.29;nan;99862.03;5009661;28;20671;-64
2023/07/28 05:07:31;;;;;;;2.00;0.93;;;18.90;99.90;;;19.31;nan;99858.16;5010610;28;20661;-65
2023/07/28 05:09:58;;;;;;;0.80;0.80;;;18.90;99.90;;;19.33;nan;99861.47;5000140;28;20693;-66
2023/07/28 05:12:25;;;;;;;1.13;1.13;;;18.90;99.90;;;19.36;nan;99865.56;5009389;28;20634;-65
2023/07/28 05:14:53;;;;;;;0.90;0.90;;;18.90;99.90;;;19.42;nan;99869.31;4992860;28;20642;-68
2023/07/28 05:17:20;;;;;;;1.20;1.10;;;19.00;99.90;;;19.41;nan;99859.72;5001698;28;20669;-66
2023/07/28 05:19:47;;;;;;;0.80;0.80;;;19.00;99.90;;;19.44;nan;99865.50;4994302;28;20680;-67
2023/07/28 05:22:14;;;;;;;0.70;0.70;;;19.00;99.90;;;19.46;nan;99868.78;4991076;28;20642;-65
2023/07/28 05:24:41;;;;;;;1.07;1.07;;;19.00;99.90;;;19.50;nan;99880.63;5008229;28;20695;-65
2023/07/28 05:27:08;;;;;;;1.10;1.00;;;19.00;99.90;;;19.53;nan;99890.81;5003422;28;20662;-67
2023/07/28 05:29:35;;;;;;;1.10;1.10;;;19.10;99.90;;;19.54;nan;99881.88;4991666;28;21032;-67
2023/07/28 05:32:02;;;;;;;1.00;1.00;;;19.10;99.90;;;19.55;nan;99867.63;5003836;28;20629;-64
2023/07/28 05:34:29;;;;;;;1.10;1.10;;;19.10;99.90;;;19.60;nan;99867.09;4991111;28;20649;-65
2023/07/28 05:36:56;;;;;;;1.87;1.00;;;19.10;99.90;;;19.62;nan;99873.00;5000876;28;20665;-65
2023/07/28 05:39:23;;;;;;;0.90;0.90;;;19.20;99.90;;;19.67;nan;99876.75;4987778;28;20677;-66
2023/07/28 05:41:50;;;;;;;1.53;0.90;;;19.20;99.90;;;19.69;nan;99872.09;4986747;28;20638;-66
2023/07/28 05:44:17;;;;;;;1.07;1.07;;;19.30;99.90;;;19.73;nan;99870.72;4985356;28;20665;-65
2023/07/28 05:46:45;;;;;;;0.80;0.80;;;19.30;99.90;;;19.76;nan;99874.81;4992140;28;20692;-66
2023/07/28 05:49:12;;;;;;;0.73;0.73;;;19.30;99.90;;;19.80;nan;99876.06;5000794;28;21388;-65
2023/07/28 05:51:39;;;;;;;0.80;0.80;;;19.40;99.90;;;19.83;nan;99876.50;4991859;28;20639;-64
2023/07/28 05:54:07;;;;;;;1.10;1.10;;;19.40;99.90;;;19.87;nan;99893.66;5005068;28;20655;-65
2023/07/28 05:56:34;;;;;;;0.90;0.90;;;19.40;99.90;;;19.93;nan;99895.53;5003002;28;20673;-64
2023/07/28 05:59:01;;;;;;;0.77;0.77;;;19.50;99.90;;;19.99;nan;99897.47;4996232;28;20685;-69
2023/07/28 06:01:28;;;;;;;0.97;0.97;;;19.50;99.90;;;20.02;nan;99894.44;5002075;28;20650;-65
2023/07/28 06:03:58;;;;;;;0.70;0.70;;;19.60;99.90;;;20.05;nan;99891.41;4998934;28;21070;-66
2023/07/28 06:06:27;;;;;;;0.77;0.77;;;19.60;99.90;;;20.08;nan;99896.31;4997578;28;21510;-66
2023/07/28 06:08:54;;;;;;;0.70;0.70;;;19.60;99.90;;;20.11;nan;99897.78;4987389;28;20641;-64
2023/07/28 06:11:21;;;;;;;0.83;0.60;;;19.70;99.90;;;20.10;nan;99907.53;4986433;28;20651;-67
2023/07/28 06:13:48;;;;;;;0.60;0.60;;;19.70;99.90;;;20.13;nan;99909.00;4994503;28;20637;-65
2023/07/28 06:16:15;;;;;;;0.60;0.60;;;19.70;99.90;;;20.12;nan;99915.31;5004039;28;20666;-64
2023/07/28 06:18:42;;;;;;;0.70;0.70;;;19.70;99.90;;;20.10;nan;99920.78;5007020;28;20674;-65
2023/07/28 06:21:09;;;;;;;0.70;0.70;;;19.70;99.90;;;20.09;nan;99923.63;5004804;28;21072;-66
2023/07/28 06:23:36;;;;;;;1.13;0.60;;;19.60;99.90;;;20.09;nan;99929.75;5007047;28;21028;-64
2023/07/28 06:26:03;;;;;;;1.17;0.93;;;19.70;99.90;;;20.08;nan;99933.38;5001394;28;20673;-65
2023/07/28 06:28:30;;;;;;;0.70;0.70;;;19.70;99.90;;;20.09;nan;99936.88;4991441;28;20646;-64
2023/07/28 06:30:58;;;;;;;1.97;0.70;;;19.60;99.90;;;20.10;nan;99936.66;4993351;28;20645;-66
2023/07/28 06:33:28;;;;;;;0.60;0.60;;;19.60;99.90;;;20.08;nan;99943.97;5003923;28;20636;-68
2023/07/28 06:35:55;;;;;;;1.10;0.67;;;19.70;99.90;;;20.07;nan;99941.53;4993465;28;20669;-65
2023/07/28 06:38:22;;;;;;;1.47;0.70;;;19.70;99.90;;;20.06;nan;99946.00;5006394;28;20671;-66
2023/07/28 06:40:49;;;;;;;0.70;0.70;;;19.60;99.90;;;20.06;nan;99946.00;5003135;28;20639;-69
2023/07/28 06:43:18;;;;;;;3.03;0.87;;;19.60;99.90;;;20.05;nan;99944.38;4998259;28;20638;-67
2023/07/28 06:45:45;;;;;;;0.83;0.83;;;19.60;99.90;;;20.08;nan;99953.78;4995637;28;20668;-65
2023/07/28 06:48:12;;;;;;;0.80;0.80;;;19.70;99.90;;;20.10;nan;99955.22;4992179;28;21196;-65
2023/07/28 06:50:39;;;;;;;0.70;0.60;;;19.70;99.90;;;20.15;nan;99954.66;4989989;28;20645;-64
2023/07/28 06:53:06;;;;;;;0.83;0.83;;;19.70;99.90;;;20.16;nan;99960.78;4993270;28;20641;-67
2023/07/28 06:55:33;;;;;;;0.70;0.70;;;19.70;99.90;;;20.16;nan;99964.25;5001980;28;20645;-66
2023/07/28 06:58:00;;;;;;;1.00;0.93;;;19.80;99.90;;;20.19;nan;99960.41;4996570;28;20633;-68
2023/07/28 07:00:27;;;;;;;0.70;0.70;;;19.80;99.90;;;20.17;nan;99952.63;4993642;28;20684;-64
2023/07/28 07:02:54;;;;;;;0.50;0.50;;;19.80;99.90;;;20.20;nan;99956.72;4981799;28;20638;-65
2023/07/28 07:05:21;;;;;;;0.57;0.57;;;19.80;99.90;;;20.21;nan;99959.22;4990382;28;20641;-63
2023/07/28 07:07:48;;;;;;;0.63;0.63;;;19.80;99.90;;;20.22;nan;99957.41;4987303;28;21215;-66
2023/07/28 07:10:15;;;;;;;0.60;0.60;;;19.80;99.90;;;20.26;nan;99959.50;4986230;28;20697;-65
2023/07/28 07:12:42;;;;;;;0.60;0.60;;;19.80;99.90;;;20.29;nan;99967.06;5005316;28;20638;-65
2023/07/28 07:15:11;;;;;;;0.83;0.73;;;19.90;99.90;;;20.33;nan;99967.50;4996117;28;21026;-65
2023/07/28 07:17:39;;;;;;;0.80;0.80;;;19.80;99.90;;;20.36;nan;99972.44;5002125;28;20659;-66
2023/07/28 07:20:07;;;;;;;0.67;0.67;;;19.90;99.90;;;20.40;nan;99971.03;5002324;28;20665;-67
2023/07/28 07:22:34;;;;;;;0.60;0.60;;;19.90;99.90;;;20.48;nan;99978.88;5007452;28;20646;-66
2023/07/28 07:25:01;;;;;;;0.80;0.80;;;20.00;99.90;;;20.55;nan;99974.47;5006909;28;20629;-64
2023/07/28 07:27:28;;;;;;;0.80;0.80;;;20.10;99.90;;;20.62;nan;99977.97;4999939;28;21304;-67
2023/07/28 07:29:55;;;;;;;10.03;1.10;;;20.10;99.90;;;20.68;nan;99980.69;4992600;28;20661;-67
2023/07/28 07:32:22;;;;;;;0.60;0.60;;;20.20;99.90;;;20.78;nan;99977.72;4994844;28;20634;-64
2023/07/28 07:34:49;;;;;;;0.80;0.80;;;20.30;99.90;;;20.88;nan;99967.59;5003527;28;20667;-66
2023/07/28 07:37:16;;;;;;;1.20;1.20;;;20.40;99.90;;;21.02;nan;99971.97;5013010;28;20673;-67
2023/07/28 07:39:43;;;;;;;0.90;0.90;;;20.50;99.90;;;21.20;nan;99980.31;4994346;28;20681;-65
2023/07/28 07:42:11;;;;;;;0.80;0.80;;;20.70;99.90;;;21.48;nan;99978.44;4998523;28;20640;-66
2023/07/28 07:44:38;;;;;;;1.00;1.00;;;21.00;99.90;;;22.21;nan;99987.56;5005563;28;20645;-64
2023/07/28 07:47:14;;;;;;;0.63;0.63;;;21.60;99.90;;;22.81;nan;99984.78;5006396;28;20657;-65
2023/07/28 07:49:42;;;;;;;0.60;0.60;;;22.30;99.90;;;23.15;nan;99992.53;4991356;28;20995;-65
2023/07/28 07:52:09;;;;;;;0.63;0.63;;;22.70;99.90;;;23.30;nan;99984.34;5007738;28;20651;-65
2023/07/28 07:54:37;;;;;;;0.83;0.83;;;22.80;99.90;;;23.32;nan;99981.47;5008531;28;21386;-63
2023/07/28 07:57:04;;;;;;;0.97;0.97;;;22.80;99.90;;;23.35;nan;99981.09;5006768;28;20660;-64
2023/07/28 07:59:32;;;;;;;0.80;0.80;;;22.90;99.90;;;23.95;nan;99977.19;5005646;28;21069;-65
2023/07/28 08:02:02;;;;;;;0.80;0.80;;;23.30;99.90;;;24.89;nan;99983.41;5000377;28;20637;-67
2023/07/28 08:04:31;;;;;;;0.67;0.67;;;24.40;99.90;;;26.21;nan;99992.47;5003116;28;20633;-68
2023/07/28 08:06:58;;;;;;;0.70;0.70;;;25.60;99.90;;;26.87;nan;99990.47;4995239;28;20683;-66
2023/07/28 08:09:25;;;;;;;2.27;0.80;;;26.40;99.90;;;27.98;nan;99986.78;5004233;28;20641;-69
2023/07/28 08:11:53;;;;;;;0.53;0.53;;;27.40;99.90;;;28.98;nan;99983.19;5004835;28;20641;-68
2023/07/28 08:14:20;;;;;;;0.60;0.60;;;28.50;99.90;;;29.66;nan;99992.78;5005116;28;20641;-64
2023/07/28 08:16:47;;;;;;;0.73;0.73;;;29.30;99.90;;;30.27;nan;99988.94;4992685;28;20672;-65
2023/07/28 08:19:14;;;;;;;0.50;0.50;;;29.90;99.90;;;30.59;nan;99993.31;4992096;28;20681;-67
2023/07/28 08:21:41;;;;;;;0.73;0.73;;;30.30;99.90;;;31.01;nan;99989.88;5003100;28;20645;-64
2023/07/28 08:24:08;;;;;;;0.50;0.50;;;30.60;99.90;;;31.33;nan;99987.94;5001927;28;21209;-64
2023/07/28 08:26:35;;;;;;;1.20;0.67;;;31.20;99.90;;;31.90;nan;99988.00;5003980;28;21238;-64
2023/07/28 08:29:02;;;;;;;0.60;0.60;;;31.70;99.90;;;32.21;nan;99980.78;5004441;28;20680;-66
2023/07/28 08:31:29;;;;;;;0.60;0.60;;;32.00;99.90;;;31.55;nan;99980.56;5003818;28;20642;-64
2023/07/28 08:33:56;;;;;;;0.70;0.70;;;31.50;99.90;;;30.44;nan;99984.28;5004633;28;20716;-64
2023/07/28 08:36:23;;;;;;;0.60;0.60;;;30.50;99.90;;;29.92;nan;99980.50;5002872;28;20665;-66
2023/07/28 08:38:50;;;;;;;0.63;0.63;;;29.80;99.90;;;29.00;nan;99980.28;5006730;28;21178;-65
2023/07/28 08:41:16;;;;;;;0.83;0.83;;;28.90;99.90;;;28.32;nan;99983.13;4995443;28;20708;-65
2023/07/28 08:43:44;;;;;;;0.70;0.70;;;28.10;99.90;;;27.75;nan;99978.78;4998369;28;20691;-68
2023/07/28 08:46:11;;;;;;;0.83;0.83;;;27.50;99.90;;;27.15;nan;99991.66;4993146;28;20665;-66
2023/07/28 08:48:38;;;;;;;0.60;0.60;;;26.90;99.90;;;26.73;nan;99991.72;4992301;28;20648;-65
2023/07/28 08:51:05;;;;;;;1.13;1.03;;;26.40;99.90;;;26.72;nan;99998.13;5004043;28;20649;-66
2023/07/28 08:53:32;;;;;;;0.73;0.73;;;26.30;99.90;;;26.80;nan;99986.25;5006838;28;20668;-67
2023/07/28 08:55:59;;;;;;;0.63;0.63;;;26.30;99.90;;;26.79;nan;99992.66;4994523;28;21326;-66
2023/07/28 08:58:26;;;;;;;0.77;0.77;;;26.30;99.90;;;26.82;nan;99995.69;4996352;28;20637;-66
2023/07/28 09:00:53;;;;;;;9.40;3.13;;;26.30;99.90;;;27.11;nan;99995.84;5000273;28;20665;-68
2023/07/28 09:03:21;;;;;;;0.70;0.70;;;26.50;99.90;;;27.23;nan;99988.59;5007058;28;20637;-66
2023/07/28 09:05:48;;;;;;;0.70;0.70;;;26.70;99.90;;;27.45;nan;99987.78;5009664;28;20696;-66
2023/07/28 09:08:19;;;;;;;0.50;0.50;;;26.80;99.90;;;27.40;nan;99992.25;5001126;28;21015;-65
2023/07/28 09:10:49;;;;;;;0.73;0.73;;;26.80;99.90;;;27.08;nan;99999.78;4983176;28;20647;-65
2023/07/28 09:13:18;;;;;;;1.00;0.70;;;26.60;99.90;;;26.84;nan;100000.81;4997876;28;20641;-66
2023/07/28 09:15:46;;;;;;;0.90;0.90;;;26.40;99.90;;;26.49;nan;99999.91;5000781;28;20677;-65
2023/07/28 09:18:16;;;;;;;0.70;0.70;;;26.00;99.90;;;26.32;nan;100006.94;4998734;28;20650;-66
2023/07/28 09:20:46;;;;;;;0.63;0.63;;;25.80;99.90;;;26.09;nan;100003.09;5004957;28;20736;-66
2023/07/28 09:23:15;;;;;;;0.70;0.70;;;25.70;99.90;;;25.77;nan;99998.97;4998611;28;20637;-65
2023/07/28 09:25:42;;;;;;;0.70;0.70;;;25.30;99.90;;;25.48;nan;99996.22;5000549;28;20702;-67
2023/07/28 09:28:10;;;;;;;1.00;0.90;;;25.10;99.90;;;25.38;nan;99991.38;5007135;28;20691;-65
2023/07/28 09:30:49;;;;;;;0.73;0.73;;;24.90;99.90;;;25.23;nan;99998.91;5007285;28;20672;-65
2023/07/28 09:33:31;;;;;;;4.73;0.87;;;24.80;99.90;;;25.21;nan;99991.09;5004843;28;20651;-67
2023/07/28 09:36:11;;;;;;;0.90;0.90;;;24.70;99.90;;;25.30;nan;99992.44;4989056;28;20658;-65
2023/07/28 09:38:41;;;;;;;0.90;0.90;;;24.80;99.90;;;25.44;nan;99992.34;4995845;28;20646;-65
2023/07/28 09:41:11;;;;;;;0.90;0.90;;;24.90;99.90;;;25.65;nan;99997.25;4996680;28;20678;-65
2023/07/28 09:43:39;;;;;;;4.20;0.57;;;25.10;99.90;;;25.82;nan;99998.28;5003558;28;20641;-65
2023/07/28 09:46:10;;;;;;;1.07;1.03;;;25.30;99.90;;;26.02;nan;99991.66;5004751;28;20665;-65
2023/07/28 09:48:45;;;;;;;0.90;0.90;;;25.50;99.90;;;26.19;nan;99988.38;5003277;28;20635;-65
2023/07/28 09:51:19;;;;;;;1.90;0.80;;;25.60;99.90;;;26.36;nan;100000.09;4996160;28;20645;-69
2023/07/28 09:53:53;;;;;;;0.73;0.73;;;25.80;99.90;;;26.52;nan;99997.56;5002462;28;20630;-67
2023/07/28 09:56:27;;;;;;;0.63;0.63;;;26.00;99.90;;;26.54;nan;99992.81;5008978;28;21264;-68
2023/07/28 09:58:56;;;;;;;0.90;0.70;;;26.00;99.90;;;26.51;nan;99989.78;4997882;28;21209;-64
2023/07/28 10:01:23;;;;;;;0.77;0.77;;;26.00;99.90;;;26.50;nan;99994.31;5006017;28;21508;-65
2023/07/28 10:03:51;;;;;;;1.33;0.90;;;26.00;99.90;;;26.59;nan;99997.47;4997535;28;21532;-65
2023/07/28 10:06:20;;;;;;;0.93;0.93;;;26.00;99.90;;;26.82;nan;100001.03;4991448;28;20677;-65
2023/07/28 10:08:47;;;;;;;0.97;0.97;;;26.20;99.90;;;26.95;nan;100005.38;5010384;28;20649;-66
2023/07/28 10:11:16;;;;;;;1.07;1.07;;;26.50;99.90;;;26.88;nan;100010.00;5002963;28;20644;-65
2023/07/28 10:13:46;;;;;;;0.70;0.70;;;26.40;99.90;;;26.64;nan;100017.13;5008267;28;20637;-66
2023/07/28 10:16:17;;;;;;;0.80;0.80;;;26.20;99.90;;;26.42;nan;100016.03;5014757;28;21429;-64
2023/07/28 10:18:54;;;;;;;0.90;0.90;;;26.00;99.90;;;26.23;nan;100017.13;5005242;28;20638;-65
2023/07/28 10:21:21;;;;;;;0.90;0.90;;;25.80;99.90;;;26.07;nan;100007.84;4995334;28;20684;-65
2023/07/28 10:23:56;;;;;;;1.10;1.10;;;25.60;99.90;;;25.94;nan;100005.31;4999761;28;20642;-65
2023/07/28 10:26:39;;;;;;;0.90;0.90;;;25.50;99.90;;;25.79;nan;100014.78;5003254;28;20660;-66
2023/07/28 10:29:12;;;;;;;1.00;1.00;;;25.30;99.90;;;25.64;nan;100017.81;4992386;28;20726;-67
2023/07/28 10:31:53;;;;;;;0.87;0.87;;;25.20;99.90;;;25.58;nan;100018.69;4992957;28;20638;-65
2023/07/28 10:34:22;;;;;;;1.07;1.07;;;25.10;99.90;;;25.57;nan;100022.44;5002378;28;20645;-64
2023/07/28 10:36:58;;;;;;;0.90;0.90;;;25.00;99.90;;;25.63;nan;100021.53;4996754;28;20668;-64